KTUP

Details ICAO KTUP (TUP)
Name TUPELO RGNL
Region United States
Timezone America/Chicago (UTC-6.0)
Plans Departing 14
Arriving 14
Stats Elevation 346 ft / 105 m (AMSL)
Location 34.268111° -88.769894°
Runways 1
Magnetic Variation 2.134° W
Sunrise 2017-12-15 12:55:23 UTC / 2017-12-15 06:55:23 Local
Sunset 2017-12-15 22:48:06 UTC / 2017-12-15 16:48:06 Local
Advertisement - Login to hide

Runways

ID Width Length Bearing (true) Bearing (mag) Surface Threshold Offset Overrun Length
18 100 ft / 30 m 6,516 ft / 1,986 m 179.87° 182.00° Asphalt 0 ft / 0 m 0 ft / 0 m
36 100 ft / 30 m 6,516 ft / 1,986 m 359.87° 2.00° Asphalt 0 ft / 0 m 0 ft / 0 m

Approach Navaids

Runway Type Ident Frequency Range Bearing (true) Bearing (mag) Slope Elevation
36 Localiser ITUP 108.50 MHz 18 nm / 33 km 359.86° 2.00° - 346 ft / 105 m (AMSL)
36 Glidescope ITUP 108.50 MHz 10 nm / 19 km 359.87° 2.00° 3.00° 345 ft / 105 m (AMSL)

Map

Weather


0- 5 10 15 20 25 30 35+ Temperature / ° C

Clouds and Precipitation
Forecast for 2017-12-15 12:00 UTC. Updated an hour ago

Ground ~20,000 ft ~40,000 ft Winds

METAR

KTUP 150753Z AUTO 33005KT 10SM CLR M01/M04 A3012 RMK AO2 SLP199 T10061044

TAF

TAF KTUP 150520Z 1506/1606 35005KT P6SM SKC FM151500 34007KT P6SM SCT045 FM160000 VRB02KT P6SM SKC

Frequencies

Recorded 133.52 MHz ASOS
Ground 121.82 MHz GND
Unicom 118.77 MHz CTAF
Tower 118.77 MHz TWR
Warning: Do not use this data for real-world aviation or navigation. No guarantee of current accuracy is given.